This is the latest recevied weather packets stored in our database for station/object CA3EVY-3. If no packets are shown the sender has not sent any weather packets the latest 10 day(s).
| Time | Temp. | Humidity | Pressure | Rain* | Wind** | Luminosity | Snow |
|---|---|---|---|---|---|---|---|
| 1777937403 | 17.78° C | 38% | 916.7 hPa | - | - | - | - |
| 1777936504 | 17.78° C | 38% | 916.9 hPa | - | - | - | - |
| 1777935603 | 18.33° C | 37% | 917 hPa | - | - | - | - |
| 1777934704 | 18.33° C | 37% | 917 hPa | - | - | - | - |
| 1777933803 | 18.89° C | 35% | 916.8 hPa | - | - | - | - |
| 1777932904 | 19.44° C | 35% | 916.6 hPa | - | - | - | - |
| 1777932004 | 20.56° C | 32% | 916.4 hPa | - | - | - | - |
| 1777931103 | 21.11° C | 32% | 916.3 hPa | - | - | - | - |
| 1777930203 | 21.67° C | 31% | 916.5 hPa | - | - | - | - |
| 1777929304 | 22.22° C | 31% | 916.5 hPa | - | - | - | - |
| 1777928404 | 22.78° C | 32% | 916.5 hPa | - | - | - | - |
| 1777927504 | 22.78° C | 32% | 916.3 hPa | - | - | - | - |
| 1777926603 | 22.78° C | 33% | 916.4 hPa | - | - | - | - |
| 1777925704 | 22.78° C | 33% | 916.5 hPa | - | - | - | - |
| 1777924803 | 22.22° C | 35% | 916.4 hPa | - | - | - | - |
| 1777923905 | 21.67° C | 35% | 916.5 hPa | - | - | - | - |
| 1777923003 | 20.56° C | 37% | 916.5 hPa | - | - | - | - |
| 1777922104 | 20.56° C | 37% | 916.6 hPa | - | - | - | - |
| 1777921203 | 20° C | 37% | 916.8 hPa | - | - | - | - |
| 1777920304 | 19.44° C | 37% | 916.9 hPa | - | - | - | - |
| 1777919403 | 18.89° C | 37% | 917.1 hPa | - | - | - | - |
| 1777918503 | 18.89° C | 37% | 917.4 hPa | - | - | - | - |
| 1777917604 | 18.89° C | 37% | 917.5 hPa | - | - | - | - |
| 1777916703 | 18.89° C | 37% | 917.7 hPa | - | - | - | - |
| 1777915803 | 18.89° C | 37% | 917.6 hPa | - | - | - | - |
* Rain since midnight (hover to see other rain measurements)
** Current wind speed in m/s (hover to see current wind gust speed)